createdAt,value
2018-10-06T00:00:29.953Z,77.95
2018-10-06T00:02:59.140Z,78.10
2018-10-06T00:05:28.549Z,77.61
2018-10-06T00:07:57.593Z,76.85
2018-10-06T00:10:27.655Z,76.81
2018-10-06T00:12:57.175Z,75.82
2018-10-06T00:15:26.250Z,75.65
2018-10-06T00:17:55.975Z,76.20
2018-10-06T00:20:26.908Z,75.68
2018-10-06T00:22:56.312Z,76.26
2018-10-06T00:25:26.089Z,75.88
2018-10-06T00:27:57.027Z,76.02
2018-10-06T00:30:25.675Z,76.91
2018-10-06T00:32:55.430Z,76.08
2018-10-06T00:35:27.257Z,76.82
2018-10-06T00:37:56.279Z,75.43
2018-10-06T00:40:26.103Z,75.38
2018-10-06T00:42:55.991Z,74.23
2018-10-06T00:45:25.544Z,73.54
2018-10-06T00:47:55.768Z,74.42
2018-10-06T00:50:25.356Z,73.83
2018-10-06T00:52:53.848Z,73.26
2018-10-06T00:55:24.184Z,73.02
2018-10-06T00:57:53.302Z,73.28
2018-10-06T01:00:22.943Z,73.67
2018-10-06T01:02:52.392Z,72.86
2018-10-06T01:05:21.391Z,75.69
2018-10-06T01:07:49.913Z,76.10
2018-10-06T01:10:20.290Z,77.66
2018-10-06T01:12:51.198Z,77.97
2018-10-06T01:15:20.918Z,76.73
2018-10-06T01:17:49.940Z,77.56
2018-10-06T01:20:18.480Z,76.92
2018-10-06T01:22:49.302Z,77.68
2018-10-06T01:25:20.905Z,77.51
2018-10-06T01:27:49.419Z,77.50
2018-10-06T01:30:19.091Z,77.25
2018-10-06T01:32:49.032Z,78.33
2018-10-06T01:35:18.348Z,78.82
2018-10-06T01:37:48.181Z,78.74
2018-10-06T01:40:17.699Z,77.96
2018-10-06T01:42:48.070Z,77.63
2018-10-06T01:45:17.472Z,75.61
2018-10-06T01:47:49.024Z,76.50
2018-10-06T01:50:18.101Z,77.49
2018-10-06T01:52:47.891Z,77.81
2018-10-06T01:55:17.578Z,76.74
2018-10-06T01:57:46.423Z,78.50
2018-10-06T02:00:17.491Z,78.23
2018-10-06T02:02:46.484Z,77.46
2018-10-06T02:05:16.448Z,77.38
2018-10-06T02:07:46.933Z,77.14
2018-10-06T02:10:15.547Z,77.58
2018-10-06T02:12:44.648Z,77.61
2018-10-06T02:15:14.611Z,76.74
2018-10-06T02:17:43.180Z,76.44
2018-10-06T02:20:14.947Z,76.91
2018-10-06T02:22:43.829Z,77.39
2018-10-06T02:25:13.589Z,77.78
2018-10-06T02:27:44.080Z,77.14
2018-10-06T02:30:13.222Z,78.67
2018-10-06T02:32:43.191Z,79.07
2018-10-06T02:35:12.551Z,79.86
2018-10-06T02:37:41.372Z,80.89
2018-10-06T02:40:10.576Z,80.85
2018-10-06T02:42:39.801Z,80.45
2018-10-06T02:45:10.321Z,81.25
2018-10-06T02:47:40.950Z,81.33
2018-10-06T02:50:10.665Z,81.04
2018-10-06T02:52:47.514Z,81.22
2018-10-06T02:55:33.723Z,81.74
2018-10-06T02:58:03.658Z,82.17
2018-10-06T03:00:32.627Z,81.45
2018-10-06T03:03:06.130Z,82.44
2018-10-06T03:05:35.319Z,81.65
2018-10-06T03:08:05.363Z,81.62
2018-10-06T03:10:35.517Z,81.38
2018-10-06T03:13:05.065Z,82.02
2018-10-06T03:15:38.492Z,81.07
2018-10-06T03:18:11.455Z,80.58
2018-10-06T03:20:40.594Z,80.16
2018-10-06T03:23:09.684Z,79.77
2018-10-06T03:25:38.441Z,79.58
2018-10-06T03:28:08.559Z,79.30
2018-10-06T03:30:38.992Z,78.73
2018-10-06T03:33:08.940Z,78.56
2018-10-06T03:35:42.116Z,78.93
2018-10-06T03:38:11.763Z,79.42
2018-10-06T03:40:42.190Z,77.04
2018-10-06T03:43:12.668Z,79.31
2018-10-06T03:45:48.304Z,79.66
2018-10-06T03:48:18.340Z,79.40
2018-10-06T03:50:48.344Z,78.43
2018-10-06T03:53:16.850Z,76.08
2018-10-06T03:55:46.088Z,73.66
2018-10-06T03:58:16.777Z,75.40
2018-10-06T04:00:48.136Z,75.68
2018-10-06T04:03:18.280Z,75.00
2018-10-06T04:05:47.163Z,74.75
2018-10-06T04:08:16.439Z,73.94
2018-10-06T04:10:45.826Z,74.30
2018-10-06T04:13:16.983Z,72.95
2018-10-06T04:15:45.644Z,72.32
2018-10-06T04:18:14.533Z,70.63
2018-10-06T04:20:44.548Z,70.30
2018-10-06T04:23:15.685Z,71.41
2018-10-06T04:25:45.151Z,71.50
2018-10-06T04:28:14.744Z,71.83
2018-10-06T04:30:47.295Z,68.78
2018-10-06T04:33:17.911Z,68.45
2018-10-06T04:35:48.898Z,69.90
2018-10-06T04:38:18.034Z,68.22
2018-10-06T04:40:47.937Z,69.54
2018-10-06T04:43:17.204Z,67.88
2018-10-06T04:45:45.743Z,67.90
2018-10-06T04:48:15.343Z,70.44
2018-10-06T04:50:44.501Z,72.27
2018-10-06T04:53:14.903Z,73.66
2018-10-06T04:55:44.235Z,74.73
2018-10-06T04:58:12.964Z,71.96
2018-10-06T05:00:43.671Z,69.50
2018-10-06T05:03:14.845Z,68.42
2018-10-06T05:05:44.357Z,68.46
2018-10-06T05:08:14.216Z,68.99
2018-10-06T05:10:42.695Z,68.45
2018-10-06T05:13:12.890Z,69.12
2018-10-06T05:15:44.705Z,69.12
2018-10-06T05:18:13.850Z,69.89
2018-10-06T05:20:45.674Z,68.73
2018-10-06T05:23:15.049Z,69.71
2018-10-06T05:25:46.732Z,69.79
2018-10-06T05:28:16.740Z,68.66
2018-10-06T05:30:48.240Z,68.61
2018-10-06T05:33:18.773Z,70.26
2018-10-06T05:35:47.487Z,68.86
2018-10-06T05:38:16.888Z,68.02
2018-10-06T05:40:46.072Z,68.13
2018-10-06T05:43:17.682Z,67.84
2018-10-06T05:45:47.046Z,68.82
2018-10-06T05:48:17.312Z,70.34
2018-10-06T05:50:47.299Z,69.57
2018-10-06T05:53:16.876Z,70.98
2018-10-06T05:55:47.335Z,72.91
2018-10-06T05:58:17.431Z,71.38
2018-10-06T06:00:46.105Z,70.99
2018-10-06T06:03:15.956Z,73.16
2018-10-06T06:05:46.208Z,74.15
2018-10-06T06:08:15.839Z,74.98
2018-10-06T06:10:45.682Z,74.90
2018-10-06T06:13:15.747Z,76.87
2018-10-06T06:15:44.591Z,77.33
2018-10-06T06:18:14.553Z,78.77
2018-10-06T06:20:43.764Z,79.67
2018-10-06T06:23:14.896Z,80.03
2018-10-06T06:25:44.549Z,79.80
2018-10-06T06:28:14.168Z,79.79
2018-10-06T06:30:44.859Z,78.81
2018-10-06T06:33:13.681Z,78.62
2018-10-06T06:35:44.018Z,78.69
2018-10-06T06:38:14.768Z,77.86
2018-10-06T06:40:43.982Z,78.45
2018-10-06T06:43:14.183Z,78.85
2018-10-06T06:45:46.216Z,78.04
2018-10-06T06:48:14.781Z,77.57
2018-10-06T06:50:46.601Z,75.57
2018-10-06T06:53:16.586Z,75.51
2018-10-06T06:55:47.432Z,74.88
2018-10-06T06:58:19.636Z,74.00
2018-10-06T07:00:49.559Z,74.24
2018-10-06T07:03:20.237Z,71.95
2018-10-06T07:05:49.760Z,72.41
2018-10-06T07:08:18.578Z,72.56
2018-10-06T07:10:47.835Z,72.24
2018-10-06T07:13:18.913Z,73.81
2018-10-06T07:15:48.676Z,74.86
2018-10-06T07:18:18.059Z,75.82
2018-10-06T07:20:47.111Z,75.89
2018-10-06T07:23:16.432Z,76.08
2018-10-06T07:25:48.032Z,76.03
2018-10-06T07:28:18.070Z,77.06
2018-10-06T07:30:47.572Z,76.50
2018-10-06T07:33:16.346Z,76.52
2018-10-06T07:35:47.819Z,76.01
2018-10-06T07:38:18.529Z,75.64
2018-10-06T07:40:48.600Z,73.77
2018-10-06T07:43:20.180Z,73.11
2018-10-06T07:45:50.322Z,72.30
2018-10-06T07:48:19.481Z,74.06
2018-10-06T07:50:49.817Z,73.86
2018-10-06T07:53:20.398Z,74.76
2018-10-06T07:55:51.285Z,75.43
2018-10-06T07:58:23.297Z,76.11
2018-10-06T08:00:52.791Z,76.79
2018-10-06T08:03:22.831Z,76.76
2018-10-06T08:05:53.212Z,76.27
2018-10-06T08:08:23.604Z,76.08
2018-10-06T08:10:53.291Z,74.78
2018-10-06T08:13:22.282Z,75.35
2018-10-06T08:15:52.636Z,74.50
2018-10-06T08:18:22.523Z,74.59
2018-10-06T08:20:55.287Z,73.34
2018-10-06T08:23:27.796Z,72.58
2018-10-06T08:25:57.361Z,72.80
2018-10-06T08:28:27.548Z,73.48
2018-10-06T08:30:58.331Z,73.03
2018-10-06T08:33:28.720Z,73.32
2018-10-06T08:36:04.728Z,73.72
2018-10-06T08:38:33.236Z,73.50
2018-10-06T08:41:01.728Z,72.24
2018-10-06T08:43:31.051Z,72.82
2018-10-06T08:46:00.866Z,72.51
2018-10-06T08:48:32.081Z,71.95
2018-10-06T08:51:01.168Z,71.79
2018-10-06T08:53:30.624Z,71.35
2018-10-06T08:55:59.870Z,70.21
2018-10-06T08:58:28.699Z,70.62
2018-10-06T09:00:57.240Z,70.31
2018-10-06T09:03:27.509Z,68.79
2018-10-06T09:05:56.955Z,67.90
2018-10-06T09:08:27.411Z,66.75
2018-10-06T09:10:56.064Z,66.56
2018-10-06T09:13:24.820Z,64.97
2018-10-06T09:15:54.922Z,66.57
2018-10-06T09:18:24.881Z,67.43
2018-10-06T09:20:54.151Z,65.20
2018-10-06T09:23:24.381Z,66.26
2018-10-06T09:25:53.566Z,65.07
2018-10-06T09:28:22.722Z,64.24
2018-10-06T09:30:52.586Z,63.92
2018-10-06T09:33:21.181Z,64.45
2018-10-06T09:35:50.254Z,64.40
2018-10-06T09:38:19.725Z,62.66
2018-10-06T09:40:50.186Z,62.08
2018-10-06T09:43:21.310Z,62.18
2018-10-06T09:45:52.085Z,60.16
2018-10-06T09:48:22.569Z,59.32
2018-10-06T09:50:51.710Z,59.68
2018-10-06T09:53:21.997Z,57.30
2018-10-06T09:55:52.330Z,58.04
2018-10-06T09:58:22.347Z,57.77
2018-10-06T10:00:56.962Z,57.98
2018-10-06T10:03:31.944Z,57.57
2018-10-06T10:06:02.464Z,56.96
2018-10-06T10:08:32.819Z,57.52
2018-10-06T10:11:01.475Z,58.01
2018-10-06T10:13:29.997Z,56.31
2018-10-06T10:15:59.110Z,56.41
2018-10-06T10:18:28.046Z,56.33
2018-10-06T10:20:57.425Z,56.63
2018-10-06T10:23:27.003Z,55.97
2018-10-06T10:26:01.819Z,56.09
2018-10-06T10:28:31.576Z,56.26
2018-10-06T10:31:00.670Z,55.71
2018-10-06T10:33:29.648Z,56.24
2018-10-06T10:36:01.481Z,55.48
2018-10-06T10:38:30.901Z,55.28
2018-10-06T10:40:59.631Z,55.60
2018-10-06T10:43:29.831Z,54.94
2018-10-06T10:46:00.220Z,55.51
2018-10-06T10:48:30.049Z,55.40
2018-10-06T10:50:59.665Z,55.18
2018-10-06T10:53:29.427Z,53.19
2018-10-06T10:55:58.525Z,54.89
2018-10-06T10:58:27.283Z,52.09
2018-10-06T11:00:57.683Z,54.66
2018-10-06T11:03:27.972Z,53.57
2018-10-06T11:05:57.677Z,53.09
2018-10-06T11:08:26.428Z,52.71
2018-10-06T11:10:57.600Z,52.03
2018-10-06T11:13:29.492Z,51.70
2018-10-06T11:15:59.591Z,49.75
2018-10-06T11:18:30.667Z,49.76
2018-10-06T11:21:00.200Z,50.66
2018-10-06T11:23:30.769Z,48.11
2018-10-06T11:26:00.820Z,46.88
2018-10-06T11:28:30.319Z,46.52
2018-10-06T11:31:00.052Z,48.53
2018-10-06T11:33:29.904Z,48.10
2018-10-06T11:35:59.533Z,48.66
2018-10-06T11:38:28.561Z,48.46
2018-10-06T11:40:57.291Z,45.73
2018-10-06T11:43:26.673Z,45.43
2018-10-06T11:45:56.787Z,42.84
2018-10-06T11:48:26.300Z,41.84
2018-10-06T11:50:55.968Z,44.75
2018-10-06T11:53:26.967Z,43.12
2018-10-06T11:55:56.041Z,41.67
2018-10-06T11:58:25.558Z,40.85
2018-10-06T12:00:54.666Z,41.97
2018-10-06T12:03:26.526Z,43.57
2018-10-06T12:05:55.368Z,42.94
2018-10-06T12:08:24.322Z,42.14
2018-10-06T12:10:54.307Z,42.61
2018-10-06T12:13:24.904Z,42.20
2018-10-06T12:15:54.393Z,43.95
2018-10-06T12:18:22.959Z,42.62
2018-10-06T12:20:52.556Z,41.73
2018-10-06T12:23:21.284Z,41.42
2018-10-06T12:25:50.294Z,42.16
2018-10-06T12:28:19.532Z,41.43
2018-10-06T12:30:49.964Z,43.62
2018-10-06T12:33:23.304Z,42.21
2018-10-06T12:35:54.078Z,41.39
2018-10-06T12:38:23.029Z,42.55
2018-10-06T12:40:53.612Z,42.23
2018-10-06T12:43:22.556Z,43.21
2018-10-06T12:45:52.406Z,44.38
2018-10-06T12:48:21.331Z,44.20
2018-10-06T12:50:51.850Z,45.49
2018-10-06T12:53:22.427Z,44.42
2018-10-06T12:55:56.091Z,43.88
2018-10-06T12:58:25.699Z,43.29
2018-10-06T13:00:55.647Z,42.94
2018-10-06T13:03:25.667Z,41.84
2018-10-06T13:05:54.856Z,42.05
2018-10-06T13:08:25.435Z,41.69
2018-10-06T13:10:56.295Z,41.40
2018-10-06T13:13:26.786Z,41.38
2018-10-06T13:15:55.485Z,41.61
2018-10-06T13:18:25.491Z,41.10
2018-10-06T13:20:55.401Z,41.97
2018-10-06T13:23:25.471Z,39.64
2018-10-06T13:25:55.509Z,38.06
2018-10-06T13:28:24.273Z,37.75
2018-10-06T13:30:54.835Z,35.66
2018-10-06T13:33:24.292Z,35.64
2018-10-06T13:35:52.961Z,35.14
2018-10-06T13:38:24.100Z,34.77
2018-10-06T13:40:55.684Z,34.47
2018-10-06T13:43:26.968Z,35.00
2018-10-06T13:45:57.183Z,35.22
2018-10-06T13:48:27.168Z,35.69
2018-10-06T13:50:57.262Z,36.18
2018-10-06T13:53:27.411Z,37.06
2018-10-06T13:55:57.823Z,38.39
2018-10-06T13:58:26.321Z,37.81
2018-10-06T14:00:56.400Z,38.32
2018-10-06T14:03:26.091Z,38.88
2018-10-06T14:05:57.544Z,40.46
2018-10-06T14:08:27.040Z,40.73
2018-10-06T14:10:56.899Z,41.86
2018-10-06T14:13:26.281Z,41.21
2018-10-06T14:15:56.868Z,41.56
2018-10-06T14:18:28.988Z,42.22
2018-10-06T14:20:59.064Z,41.02
2018-10-06T14:23:30.020Z,40.10
2018-10-06T14:25:59.120Z,41.31
2018-10-06T14:28:29.247Z,40.48
2018-10-06T14:31:00.778Z,41.42
2018-10-06T14:33:31.144Z,42.00
2018-10-06T14:36:00.823Z,40.99
2018-10-06T14:38:30.839Z,40.65
2018-10-06T14:41:00.627Z,41.67
2018-10-06T14:43:29.956Z,41.63
2018-10-06T14:45:59.023Z,43.05
2018-10-06T14:48:28.792Z,42.94
2018-10-06T14:50:59.767Z,42.55
2018-10-06T14:53:30.283Z,42.62
2018-10-06T14:56:00.910Z,43.42
2018-10-06T14:58:30.591Z,43.34
2018-10-06T15:01:00.352Z,43.15
2018-10-06T15:03:29.509Z,43.94
2018-10-06T15:05:58.552Z,43.65
2018-10-06T15:08:27.821Z,43.16
2018-10-06T15:10:59.283Z,43.38
2018-10-06T15:13:28.402Z,43.35
2018-10-06T15:15:58.082Z,43.16
2018-10-06T15:18:28.291Z,43.30
2018-10-06T15:20:58.559Z,44.22
2018-10-06T15:23:29.639Z,43.42
2018-10-06T15:26:00.041Z,43.35
2018-10-06T15:28:29.053Z,44.02
2018-10-06T15:30:59.120Z,43.28
2018-10-06T15:33:28.612Z,43.53
2018-10-06T15:36:00.891Z,43.47
2018-10-06T15:38:32.011Z,43.28
2018-10-06T15:41:01.340Z,44.14
2018-10-06T15:43:30.868Z,44.42
2018-10-06T15:46:05.198Z,44.93
2018-10-06T15:48:35.088Z,45.14
2018-10-06T15:51:04.605Z,44.37
2018-10-06T15:53:33.304Z,45.38
2018-10-06T15:56:03.955Z,44.50
2018-10-06T15:58:35.227Z,45.41
2018-10-06T16:01:05.366Z,45.00
2018-10-06T16:03:35.363Z,46.20
2018-10-06T16:06:07.604Z,46.38
2018-10-06T16:08:37.679Z,45.56
2018-10-06T16:11:08.056Z,46.51
2018-10-06T16:13:36.647Z,46.32
2018-10-06T16:16:07.719Z,46.35
2018-10-06T16:18:36.955Z,46.45
2018-10-06T16:21:07.317Z,46.52
2018-10-06T16:23:39.444Z,46.65
2018-10-06T16:26:08.372Z,47.60
2018-10-06T16:28:37.099Z,47.62
2018-10-06T16:31:07.018Z,47.67
2018-10-06T16:33:37.489Z,49.59
2018-10-06T16:36:06.593Z,49.33
2018-10-06T16:38:35.478Z,49.13
2018-10-06T16:41:07.207Z,48.53
2018-10-06T16:43:37.521Z,49.65
2018-10-06T16:46:06.835Z,48.78
2018-10-06T16:48:37.521Z,50.45
2018-10-06T16:51:06.997Z,52.57
2018-10-06T16:53:37.138Z,51.94
2018-10-06T16:56:07.753Z,51.44
2018-10-06T16:58:41.445Z,51.70
2018-10-06T17:01:09.948Z,51.45
2018-10-06T17:03:39.082Z,51.27
2018-10-06T17:06:08.871Z,49.95
2018-10-06T17:08:39.983Z,50.97
2018-10-06T17:11:09.108Z,50.14
2018-10-06T17:13:38.604Z,51.11
2018-10-06T17:16:07.279Z,51.76
2018-10-06T17:18:36.453Z,51.36
2018-10-06T17:21:07.298Z,51.32
2018-10-06T17:23:38.805Z,51.68
2018-10-06T17:26:08.271Z,52.12
2018-10-06T17:28:39.403Z,51.51
2018-10-06T17:31:08.975Z,50.25
2018-10-06T17:33:38.805Z,51.15
2018-10-06T17:36:09.756Z,50.25
2018-10-06T17:38:41.448Z,52.18
2018-10-06T17:41:11.029Z,51.84
2018-10-06T17:43:42.797Z,52.30
2018-10-06T17:46:12.956Z,52.45
2018-10-06T17:48:42.512Z,52.90
2018-10-06T17:51:18.053Z,53.36
2018-10-06T17:53:47.978Z,53.10
2018-10-06T17:56:19.403Z,53.45
2018-10-06T17:58:51.208Z,53.87
2018-10-06T18:01:20.264Z,54.53
2018-10-06T18:03:48.764Z,53.76
2018-10-06T18:06:17.257Z,54.77
2018-10-06T18:08:46.869Z,54.38
2018-10-06T18:11:15.648Z,54.96
2018-10-06T18:13:45.052Z,53.85
2018-10-06T18:16:14.643Z,55.89
2018-10-06T18:18:43.664Z,56.05
2018-10-06T18:21:14.974Z,57.65
2018-10-06T18:23:44.326Z,56.38
2018-10-06T18:26:14.726Z,55.52
2018-10-06T18:28:44.176Z,56.13
2018-10-06T18:31:14.873Z,56.51
2018-10-06T18:33:44.184Z,55.67
2018-10-06T18:36:14.105Z,55.95
2018-10-06T18:38:44.387Z,55.63
2018-10-06T18:41:14.348Z,55.54
2018-10-06T18:43:44.294Z,55.78
2018-10-06T18:46:13.415Z,56.48
2018-10-06T18:48:47.397Z,56.45
2018-10-06T18:51:16.909Z,57.62
2018-10-06T18:53:46.610Z,58.98
2018-10-06T18:56:16.506Z,58.46
2018-10-06T18:58:46.065Z,57.57
2018-10-06T19:01:14.813Z,57.66
2018-10-06T19:03:45.506Z,58.51
2018-10-06T19:06:15.248Z,60.11
2018-10-06T19:08:44.447Z,60.25
2018-10-06T19:11:15.512Z,58.17
2018-10-06T19:13:47.143Z,61.52
2018-10-06T19:16:16.883Z,62.24
2018-10-06T19:18:46.216Z,62.43
2018-10-06T19:21:15.722Z,62.81
2018-10-06T19:23:45.804Z,61.93
2018-10-06T19:26:16.508Z,62.49
2018-10-06T19:28:45.963Z,62.54
2018-10-06T19:31:15.992Z,63.12
2018-10-06T19:33:44.917Z,63.50
2018-10-06T19:36:14.930Z,63.68
2018-10-06T19:38:44.415Z,64.32
2018-10-06T19:41:14.112Z,63.67
2018-10-06T19:43:44.495Z,61.38
2018-10-06T19:46:13.712Z,60.97
2018-10-06T19:48:44.769Z,61.80
2018-10-06T19:51:14.081Z,61.48
2018-10-06T19:53:45.595Z,61.85
2018-10-06T19:56:14.453Z,62.21
2018-10-06T19:58:45.046Z,61.83
2018-10-06T20:01:15.275Z,60.22
2018-10-06T20:03:46.177Z,59.12
2018-10-06T20:06:15.431Z,59.21
2018-10-06T20:08:45.484Z,60.80
2018-10-06T20:11:14.244Z,61.89
2018-10-06T20:13:44.336Z,62.07
2018-10-06T20:16:13.664Z,62.74
2018-10-06T20:18:44.082Z,63.10
2018-10-06T20:21:14.039Z,63.32
2018-10-06T20:23:42.548Z,64.70
2018-10-06T20:26:12.880Z,64.74
2018-10-06T20:28:43.322Z,65.28
2018-10-06T20:31:14.057Z,66.21
2018-10-06T20:33:43.825Z,66.08
2018-10-06T20:36:13.192Z,63.49
2018-10-06T20:38:42.160Z,63.91
2018-10-06T20:41:12.224Z,64.17
2018-10-06T20:43:41.876Z,65.50
2018-10-06T20:46:12.291Z,65.61
2018-10-06T20:48:41.178Z,66.58
2018-10-06T20:51:12.273Z,64.58
2018-10-06T20:53:43.580Z,65.52
2018-10-06T20:56:14.468Z,64.33
2018-10-06T20:58:44.412Z,66.40
2018-10-06T21:01:16.114Z,64.96
2018-10-06T21:03:46.645Z,63.54
2018-10-06T21:06:17.536Z,61.95
2018-10-06T21:08:48.027Z,61.63
2018-10-06T21:11:18.384Z,61.15
2018-10-06T21:13:48.839Z,61.20
2018-10-06T21:16:18.533Z,64.19
2018-10-06T21:18:49.819Z,65.15
2018-10-06T21:21:18.677Z,65.55
2018-10-06T21:23:49.730Z,66.82
2018-10-06T21:26:18.874Z,66.70
2018-10-06T21:28:49.993Z,64.18
2018-10-06T21:31:20.766Z,65.79
2018-10-06T21:33:50.484Z,64.09
2018-10-06T21:36:20.812Z,64.50
2018-10-06T21:38:50.070Z,63.58
2018-10-06T21:41:21.058Z,64.73
2018-10-06T21:43:50.060Z,62.84
2018-10-06T21:46:19.757Z,63.19
2018-10-06T21:48:49.220Z,64.23
2018-10-06T21:51:23.581Z,64.20
2018-10-06T21:53:52.536Z,64.10
2018-10-06T21:56:22.004Z,64.03
2018-10-06T21:58:52.102Z,65.48
2018-10-06T22:01:23.466Z,66.52
2018-10-06T22:03:52.120Z,64.69
2018-10-06T22:06:26.251Z,65.18
2018-10-06T22:08:57.087Z,67.28
2018-10-06T22:11:26.388Z,67.53
2018-10-06T22:13:55.364Z,68.68
2018-10-06T22:16:25.861Z,68.76
2018-10-06T22:18:56.411Z,68.64
2018-10-06T22:21:27.391Z,69.73
2018-10-06T22:23:57.631Z,68.69
2018-10-06T22:26:26.687Z,69.40
2018-10-06T22:28:56.064Z,69.62
2018-10-06T22:31:26.719Z,70.47
2018-10-06T22:34:02.759Z,69.27
2018-10-06T22:36:32.794Z,70.04
2018-10-06T22:39:15.825Z,70.11
2018-10-06T22:41:46.897Z,70.08
2018-10-06T22:44:16.937Z,69.24
2018-10-06T22:46:48.162Z,68.47
2018-10-06T22:49:17.199Z,69.51
2018-10-06T22:51:46.388Z,69.43
2018-10-06T22:54:15.904Z,71.02
2018-10-06T22:56:46.877Z,70.68
2018-10-06T22:59:17.084Z,69.70
2018-10-06T23:01:46.539Z,69.88
2018-10-06T23:04:16.616Z,71.36
2018-10-06T23:06:47.827Z,71.02
2018-10-06T23:09:17.741Z,72.08
2018-10-06T23:11:46.571Z,72.31
2018-10-06T23:14:16.136Z,72.09
2018-10-06T23:16:45.621Z,71.73
2018-10-06T23:19:16.299Z,72.67
2018-10-06T23:21:44.780Z,73.09
2018-10-06T23:24:14.864Z,72.55
2018-10-06T23:26:46.595Z,72.00
2018-10-06T23:29:16.191Z,72.21
2018-10-06T23:31:45.307Z,72.49
2018-10-06T23:34:14.730Z,71.47
2018-10-06T23:36:43.687Z,72.43
2018-10-06T23:39:12.445Z,72.21
2018-10-06T23:41:42.606Z,71.60
2018-10-06T23:44:12.455Z,71.17
2018-10-06T23:46:42.011Z,71.51
2018-10-06T23:49:11.445Z,71.91
2018-10-06T23:51:41.517Z,71.84
2018-10-06T23:54:11.290Z,71.15
2018-10-06T23:56:42.815Z,70.96
2018-10-06T23:59:11.319Z,70.59
